sensor_id;sensor_type;location;lat;lon;timestamp;P1;durP1;ratioP1;P2;durP2;ratioP2
45314;SDS011;31051;51.540;5.852;2023-12-07T00:03:05;12.6;;;11.4;;
45314;SDS011;31051;51.540;5.852;2023-12-07T00:15:41;9.6;;;8.8;;
45314;SDS011;31051;51.540;5.852;2023-12-07T00:28:17;12.1;;;10.9;;
45314;SDS011;31051;51.540;5.852;2023-12-07T00:40:53;19.2;;;17.3;;
45314;SDS011;31051;51.540;5.852;2023-12-07T00:53:29;16.3;;;14.6;;
45314;SDS011;31051;51.540;5.852;2023-12-07T01:06:05;15.8;;;14.3;;
45314;SDS011;31051;51.540;5.852;2023-12-07T01:18:42;17.6;;;13.5;;
45314;SDS011;31051;51.540;5.852;2023-12-07T01:31:18;28.3;;;15.0;;
45314;SDS011;31051;51.540;5.852;2023-12-07T01:43:54;68.4;;;18.9;;
45314;SDS011;31051;51.540;5.852;2023-12-07T01:56:30;122.4;;;22.3;;
45314;SDS011;31051;51.540;5.852;2023-12-07T02:09:06;113.0;;;22.1;;
45314;SDS011;31051;51.540;5.852;2023-12-07T02:21:42;103.1;;;23.1;;
45314;SDS011;31051;51.540;5.852;2023-12-07T02:34:18;64.9;;;21.8;;
45314;SDS011;31051;51.540;5.852;2023-12-07T02:46:54;125.3;;;24.1;;
45314;SDS011;31051;51.540;5.852;2023-12-07T02:59:30;133.6;;;28.1;;
45314;SDS011;31051;51.540;5.852;2023-12-07T03:12:06;192.0;;;33.5;;
45314;SDS011;31051;51.540;5.852;2023-12-07T03:24:42;109.9;;;28.8;;
45314;SDS011;31051;51.540;5.852;2023-12-07T03:37:18;104.4;;;32.1;;
45314;SDS011;31051;51.540;5.852;2023-12-07T03:49:54;146.4;;;34.4;;
45314;SDS011;31051;51.540;5.852;2023-12-07T04:02:30;114.2;;;30.1;;
45314;SDS011;31051;51.540;5.852;2023-12-07T04:15:06;219.4;;;34.6;;
45314;SDS011;31051;51.540;5.852;2023-12-07T04:27:42;129.4;;;28.6;;
45314;SDS011;31051;51.540;5.852;2023-12-07T04:40:18;195.1;;;34.7;;
45314;SDS011;31051;51.540;5.852;2023-12-07T04:52:54;144.6;;;32.8;;
45314;SDS011;31051;51.540;5.852;2023-12-07T05:05:30;114.7;;;31.6;;
45314;SDS011;31051;51.540;5.852;2023-12-07T05:18:06;94.4;;;27.8;;
45314;SDS011;31051;51.540;5.852;2023-12-07T05:30:42;170.2;;;28.8;;
45314;SDS011;31051;51.540;5.852;2023-12-07T05:43:19;130.9;;;26.4;;
45314;SDS011;31051;51.540;5.852;2023-12-07T05:55:55;181.0;;;24.7;;
45314;SDS011;31051;51.540;5.852;2023-12-07T06:08:31;144.5;;;20.2;;
45314;SDS011;31051;51.540;5.852;2023-12-07T06:21:07;177.6;;;20.8;;
45314;SDS011;31051;51.540;5.852;2023-12-07T06:33:43;165.0;;;18.1;;
45314;SDS011;31051;51.540;5.852;2023-12-07T06:46:19;119.6;;;18.0;;
45314;SDS011;31051;51.540;5.852;2023-12-07T06:58:55;170.6;;;20.9;;
45314;SDS011;31051;51.540;5.852;2023-12-07T07:11:31;121.1;;;19.4;;
45314;SDS011;31051;51.540;5.852;2023-12-07T07:24:07;122.1;;;19.5;;
45314;SDS011;31051;51.540;5.852;2023-12-07T07:36:43;116.1;;;18.2;;
45314;SDS011;31051;51.540;5.852;2023-12-07T07:49:19;121.6;;;17.7;;
45314;SDS011;31051;51.540;5.852;2023-12-07T08:01:55;103.9;;;21.3;;
45314;SDS011;31051;51.540;5.852;2023-12-07T08:14:31;124.6;;;19.4;;
45314;SDS011;31051;51.540;5.852;2023-12-07T08:27:07;118.1;;;18.7;;
45314;SDS011;31051;51.540;5.852;2023-12-07T08:39:43;109.0;;;20.3;;
45314;SDS011;31051;51.540;5.852;2023-12-07T08:52:19;62.4;;;18.7;;
45314;SDS011;31051;51.540;5.852;2023-12-07T09:04:55;50.8;;;19.5;;
45314;SDS011;31051;51.540;5.852;2023-12-07T09:17:31;36.4;;;22.5;;
45314;SDS011;31051;51.540;5.852;2023-12-07T09:30:07;36.6;;;23.7;;
45314;SDS011;31051;51.540;5.852;2023-12-07T09:42:43;44.5;;;27.1;;
45314;SDS011;31051;51.540;5.852;2023-12-07T09:55:20;42.6;;;27.2;;
45314;SDS011;31051;51.540;5.852;2023-12-07T10:07:56;39.1;;;27.6;;
45314;SDS011;31051;51.540;5.852;2023-12-07T10:20:32;39.4;;;28.0;;
45314;SDS011;31051;51.540;5.852;2023-12-07T10:33:08;39.5;;;28.3;;
45314;SDS011;31051;51.540;5.852;2023-12-07T10:45:44;29.9;;;24.2;;
45314;SDS011;31051;51.540;5.852;2023-12-07T10:58:20;23.1;;;20.8;;
45314;SDS011;31051;51.540;5.852;2023-12-07T11:10:56;20.7;;;18.7;;
45314;SDS011;31051;51.540;5.852;2023-12-07T11:23:32;28.0;;;24.6;;
45314;SDS011;31051;51.540;5.852;2023-12-07T11:36:08;27.4;;;24.3;;
45314;SDS011;31051;51.540;5.852;2023-12-07T11:48:44;30.2;;;26.1;;
45314;SDS011;31051;51.540;5.852;2023-12-07T12:01:20;32.0;;;26.6;;
45314;SDS011;31051;51.540;5.852;2023-12-07T12:13:57;31.0;;;25.3;;
45314;SDS011;31051;51.540;5.852;2023-12-07T12:26:33;30.1;;;24.3;;
45314;SDS011;31051;51.540;5.852;2023-12-07T12:39:09;25.2;;;21.2;;
45314;SDS011;31051;51.540;5.852;2023-12-07T12:51:45;21.6;;;19.1;;
45314;SDS011;31051;51.540;5.852;2023-12-07T13:04:21;21.4;;;19.2;;
45314;SDS011;31051;51.540;5.852;2023-12-07T13:16:57;21.1;;;19.0;;
45314;SDS011;31051;51.540;5.852;2023-12-07T13:29:33;21.3;;;18.8;;
45314;SDS011;31051;51.540;5.852;2023-12-07T13:42:09;20.0;;;18.0;;
45314;SDS011;31051;51.540;5.852;2023-12-07T13:54:45;19.9;;;17.9;;
45314;SDS011;31051;51.540;5.852;2023-12-07T14:07:21;18.6;;;16.8;;
45314;SDS011;31051;51.540;5.852;2023-12-07T14:19:57;17.2;;;15.6;;
45314;SDS011;31051;51.540;5.852;2023-12-07T14:32:33;17.6;;;15.8;;
45314;SDS011;31051;51.540;5.852;2023-12-07T14:45:10;17.4;;;15.6;;
45314;SDS011;31051;51.540;5.852;2023-12-07T14:57:46;18.3;;;16.5;;
45314;SDS011;31051;51.540;5.852;2023-12-07T15:10:22;17.8;;;16.1;;
45314;SDS011;31051;51.540;5.852;2023-12-07T15:22:58;17.2;;;15.5;;
45314;SDS011;31051;51.540;5.852;2023-12-07T15:35:34;17.1;;;15.4;;
45314;SDS011;31051;51.540;5.852;2023-12-07T15:48:10;17.0;;;15.4;;
45314;SDS011;31051;51.540;5.852;2023-12-07T16:00:46;15.9;;;14.3;;
45314;SDS011;31051;51.540;5.852;2023-12-07T16:13:22;16.7;;;15.1;;
45314;SDS011;31051;51.540;5.852;2023-12-07T16:25:58;15.5;;;14.0;;
45314;SDS011;31051;51.540;5.852;2023-12-07T16:38:34;15.0;;;13.5;;
45314;SDS011;31051;51.540;5.852;2023-12-07T16:51:10;14.3;;;12.9;;
45314;SDS011;31051;51.540;5.852;2023-12-07T17:03:46;13.4;;;12.1;;
45314;SDS011;31051;51.540;5.852;2023-12-07T17:16:22;12.8;;;11.6;;
45314;SDS011;31051;51.540;5.852;2023-12-07T17:28:59;11.5;;;10.4;;
45314;SDS011;31051;51.540;5.852;2023-12-07T17:41:35;11.2;;;9.8;;
45314;SDS011;31051;51.540;5.852;2023-12-07T17:54:11;10.2;;;9.2;;
45314;SDS011;31051;51.540;5.852;2023-12-07T18:06:47;10.0;;;8.9;;
45314;SDS011;31051;51.540;5.852;2023-12-07T18:19:23;9.7;;;8.6;;
45314;SDS011;31051;51.540;5.852;2023-12-07T18:31:59;9.4;;;8.4;;
45314;SDS011;31051;51.540;5.852;2023-12-07T18:44:35;10.2;;;8.1;;
45314;SDS011;31051;51.540;5.852;2023-12-07T18:57:11;9.0;;;7.9;;
45314;SDS011;31051;51.540;5.852;2023-12-07T19:09:47;9.1;;;8.1;;
45314;SDS011;31051;51.540;5.852;2023-12-07T19:22:23;9.4;;;8.4;;
45314;SDS011;31051;51.540;5.852;2023-12-07T19:34:59;9.0;;;8.1;;
45314;SDS011;31051;51.540;5.852;2023-12-07T19:47:35;9.3;;;8.4;;
45314;SDS011;31051;51.540;5.852;2023-12-07T20:00:11;9.3;;;8.4;;
45314;SDS011;31051;51.540;5.852;2023-12-07T20:12:47;9.2;;;8.2;;
45314;SDS011;31051;51.540;5.852;2023-12-07T20:25:24;9.1;;;8.2;;
45314;SDS011;31051;51.540;5.852;2023-12-07T20:38:00;9.3;;;8.3;;
45314;SDS011;31051;51.540;5.852;2023-12-07T20:50:36;9.4;;;8.5;;
45314;SDS011;31051;51.540;5.852;2023-12-07T21:03:12;9.9;;;8.9;;
45314;SDS011;31051;51.540;5.852;2023-12-07T21:15:48;10.0;;;9.0;;
45314;SDS011;31051;51.540;5.852;2023-12-07T21:28:24;10.4;;;9.4;;
45314;SDS011;31051;51.540;5.852;2023-12-07T21:41:00;10.2;;;9.2;;
45314;SDS011;31051;51.540;5.852;2023-12-07T21:53:36;10.4;;;9.3;;
45314;SDS011;31051;51.540;5.852;2023-12-07T22:06:12;10.4;;;9.3;;
45314;SDS011;31051;51.540;5.852;2023-12-07T22:18:48;10.9;;;9.8;;
45314;SDS011;31051;51.540;5.852;2023-12-07T22:31:24;11.6;;;10.3;;
45314;SDS011;31051;51.540;5.852;2023-12-07T22:44:00;11.4;;;10.2;;
45314;SDS011;31051;51.540;5.852;2023-12-07T22:56:36;11.6;;;10.4;;
45314;SDS011;31051;51.540;5.852;2023-12-07T23:09:13;11.5;;;10.3;;
45314;SDS011;31051;51.540;5.852;2023-12-07T23:21:49;11.6;;;10.5;;
45314;SDS011;31051;51.540;5.852;2023-12-07T23:34:25;11.6;;;10.5;;
45314;SDS011;31051;51.540;5.852;2023-12-07T23:47:01;11.6;;;10.5;;
45314;SDS011;31051;51.540;5.852;2023-12-07T23:59:37;12.2;;;11.0;;
